createdAt,value
2016-08-20T00:00:28.337Z,0.00
2016-08-20T00:01:28.864Z,0.10
2016-08-20T00:02:29.401Z,0.10
2016-08-20T00:03:29.940Z,0.00
2016-08-20T00:04:30.506Z,0.00
2016-08-20T00:05:31.025Z,0.10
2016-08-20T00:06:31.566Z,0.10
2016-08-20T00:07:32.105Z,0.10
2016-08-20T00:08:32.644Z,0.00
2016-08-20T00:09:33.190Z,0.00
2016-08-20T00:10:33.733Z,0.00
2016-08-20T00:11:34.280Z,0.00
2016-08-20T00:12:34.825Z,0.00
2016-08-20T00:13:35.374Z,0.20
2016-08-20T00:14:35.907Z,0.20
2016-08-20T00:15:36.451Z,0.20
2016-08-20T00:16:36.986Z,0.20
2016-08-20T00:17:37.527Z,0.50
2016-08-20T00:18:38.067Z,0.30
2016-08-20T00:19:38.603Z,0.10
2016-08-20T00:20:39.145Z,0.10
2016-08-20T00:21:39.684Z,0.20
2016-08-20T00:22:40.372Z,0.10
2016-08-20T00:23:40.765Z,0.00
2016-08-20T00:24:41.302Z,0.00
2016-08-20T00:25:41.846Z,0.10
2016-08-20T00:26:42.382Z,0.00
2016-08-20T00:27:42.925Z,0.00
2016-08-20T00:28:43.466Z,0.00
2016-08-20T00:29:44.010Z,0.00
2016-08-20T00:30:44.556Z,0.00
2016-08-20T00:31:45.090Z,0.00
2016-08-20T00:32:45.779Z,0.00
2016-08-20T00:33:46.171Z,0.00
2016-08-20T00:34:46.709Z,0.00
2016-08-20T00:35:47.253Z,0.10
2016-08-20T00:36:47.791Z,0.20
2016-08-20T00:37:48.367Z,0.20
2016-08-20T00:38:48.883Z,0.10
2016-08-20T00:39:49.448Z,0.10
2016-08-20T00:40:49.951Z,0.10
2016-08-20T00:41:50.522Z,0.20
2016-08-20T00:42:51.036Z,0.30
2016-08-20T00:43:51.576Z,0.20
2016-08-20T00:44:52.117Z,0.10
2016-08-20T00:45:52.687Z,0.00
2016-08-20T00:46:53.200Z,0.30
2016-08-20T00:47:53.746Z,0.20
2016-08-20T00:48:54.287Z,0.20
2016-08-20T00:49:54.834Z,0.20
2016-08-20T00:50:55.377Z,0.20
2016-08-20T00:51:55.913Z,0.30
2016-08-20T00:52:56.452Z,0.30
2016-08-20T00:53:56.995Z,0.20
2016-08-20T00:54:57.548Z,0.40
2016-08-20T00:55:58.068Z,0.50
2016-08-20T00:56:58.639Z,0.30
2016-08-20T00:57:59.150Z,0.10
2016-08-20T00:58:59.693Z,0.30
2016-08-20T01:00:00.228Z,0.30
2016-08-20T01:01:00.777Z,0.30
2016-08-20T01:02:01.308Z,0.20
2016-08-20T01:03:01.846Z,0.40
2016-08-20T01:04:02.388Z,0.60
2016-08-20T01:05:02.931Z,0.00
2016-08-20T01:06:03.464Z,0.00
2016-08-20T01:07:04.009Z,0.00
2016-08-20T01:08:04.548Z,0.30
2016-08-20T01:09:05.238Z,0.30
2016-08-20T01:10:05.653Z,0.20
2016-08-20T01:11:06.163Z,0.20
2016-08-20T01:12:06.706Z,0.20
2016-08-20T01:13:07.250Z,0.00
2016-08-20T01:14:07.786Z,0.00
2016-08-20T01:15:08.356Z,0.00
2016-08-20T01:16:08.866Z,0.00
2016-08-20T01:17:09.406Z,0.10
2016-08-20T01:18:09.949Z,0.00
2016-08-20T01:19:10.492Z,0.00
2016-08-20T01:20:11.044Z,0.00
2016-08-20T01:21:11.563Z,0.00
2016-08-20T01:22:12.121Z,0.00
2016-08-20T01:23:12.805Z,0.00
2016-08-20T01:24:13.195Z,0.10
2016-08-20T01:25:13.738Z,0.10
2016-08-20T01:26:14.278Z,0.20
2016-08-20T01:27:14.821Z,0.00
2016-08-20T01:28:15.358Z,0.00
2016-08-20T01:29:15.927Z,0.00
2016-08-20T01:30:16.460Z,0.00
2016-08-20T01:31:16.978Z,0.00
2016-08-20T01:32:17.518Z,0.00
2016-08-20T01:33:18.053Z,0.00
2016-08-20T01:34:18.597Z,0.00
2016-08-20T01:35:19.139Z,0.00
2016-08-20T01:36:19.676Z,0.00
2016-08-20T01:37:20.214Z,0.00
2016-08-20T01:38:20.757Z,0.00
2016-08-20T01:39:21.295Z,0.00
2016-08-20T01:40:21.837Z,0.00
2016-08-20T01:41:22.373Z,0.00
2016-08-20T01:42:23.061Z,0.00
2016-08-20T01:43:23.606Z,0.00
2016-08-20T01:44:23.994Z,0.00
2016-08-20T01:45:24.539Z,0.00
2016-08-20T01:46:25.082Z,0.00
2016-08-20T01:47:25.616Z,0.00
2016-08-20T01:48:26.179Z,0.00
2016-08-20T01:49:26.693Z,0.00
2016-08-20T01:50:27.233Z,0.00
2016-08-20T01:51:27.769Z,0.00
2016-08-20T01:52:28.346Z,0.00
2016-08-20T01:53:28.856Z,0.00
2016-08-20T01:54:29.396Z,0.00
2016-08-20T01:55:29.934Z,0.00
2016-08-20T01:56:30.477Z,0.00
2016-08-20T01:57:31.031Z,0.00
2016-08-20T01:58:31.587Z,0.00
2016-08-20T01:59:32.102Z,0.00
2016-08-20T02:00:32.801Z,0.00
2016-08-20T02:01:33.193Z,0.00
2016-08-20T02:02:33.731Z,0.00
2016-08-20T02:03:34.278Z,0.00
2016-08-20T02:04:34.813Z,0.00
2016-08-20T02:05:35.351Z,0.00
2016-08-20T02:06:35.889Z,0.00
2016-08-20T02:07:36.431Z,0.00
2016-08-20T02:08:37.003Z,0.00
2016-08-20T02:09:37.508Z,0.00
2016-08-20T02:10:38.046Z,0.00
2016-08-20T02:11:38.585Z,0.00
2016-08-20T02:12:39.125Z,0.00
2016-08-20T02:13:39.665Z,0.00
2016-08-20T02:14:40.218Z,0.00
2016-08-20T02:15:40.744Z,0.00
2016-08-20T02:16:41.287Z,0.00
2016-08-20T02:17:41.825Z,0.00
2016-08-20T02:18:42.391Z,0.00
2016-08-20T02:19:42.909Z,0.00
2016-08-20T02:20:43.450Z,0.00
2016-08-20T02:21:43.988Z,0.00
2016-08-20T02:22:44.529Z,0.00
2016-08-20T02:23:45.073Z,0.00
2016-08-20T02:24:45.611Z,0.00
2016-08-20T02:25:46.301Z,0.00
2016-08-20T02:26:46.841Z,0.10
2016-08-20T02:27:47.228Z,0.10
2016-08-20T02:28:47.768Z,0.00
2016-08-20T02:29:48.458Z,0.00
2016-08-20T02:30:48.857Z,0.00
2016-08-20T02:31:49.389Z,0.00
2016-08-20T02:32:49.923Z,0.00
2016-08-20T02:33:50.618Z,0.00
2016-08-20T02:34:51.008Z,0.00
2016-08-20T02:35:51.553Z,0.00
2016-08-20T02:36:52.097Z,0.00
2016-08-20T02:37:52.820Z,0.00
2016-08-20T02:38:53.180Z,0.00
2016-08-20T02:39:53.719Z,0.00
2016-08-20T02:40:54.255Z,0.00
2016-08-20T02:41:54.795Z,0.00
2016-08-20T02:42:55.334Z,0.00
2016-08-20T02:43:55.876Z,0.00
2016-08-20T02:44:56.413Z,0.00
2016-08-20T02:45:56.951Z,0.00
2016-08-20T02:46:57.498Z,0.00
2016-08-20T02:47:58.025Z,0.00
2016-08-20T02:48:58.568Z,0.00
2016-08-20T02:49:59.107Z,0.00
2016-08-20T02:50:59.644Z,0.00
2016-08-20T02:52:00.188Z,0.00
2016-08-20T02:53:00.726Z,0.00
2016-08-20T02:54:01.265Z,0.00
2016-08-20T02:55:01.807Z,0.00
2016-08-20T02:56:02.350Z,0.00
2016-08-20T02:57:03.037Z,0.00
2016-08-20T02:58:03.434Z,0.00
2016-08-20T02:59:03.966Z,0.00
2016-08-20T03:00:04.513Z,0.00
2016-08-20T03:01:05.045Z,0.00
2016-08-20T03:02:05.584Z,0.00
2016-08-20T03:03:06.125Z,0.00
2016-08-20T03:04:06.663Z,0.00
2016-08-20T03:05:07.204Z,0.00
2016-08-20T03:06:07.761Z,0.00
2016-08-20T03:07:08.320Z,0.00
2016-08-20T03:08:08.835Z,0.00
2016-08-20T03:09:09.362Z,0.00
2016-08-20T03:10:09.900Z,0.00
2016-08-20T03:11:10.444Z,0.00
2016-08-20T03:12:10.984Z,0.00
2016-08-20T03:13:11.532Z,0.00
2016-08-20T03:14:12.224Z,0.00
2016-08-20T03:15:12.622Z,0.00
2016-08-20T03:16:13.182Z,0.00
2016-08-20T03:17:13.697Z,0.00
2016-08-20T03:18:14.239Z,0.00
2016-08-20T03:19:14.777Z,0.00
2016-08-20T03:20:15.318Z,0.00
2016-08-20T03:21:15.859Z,0.00
2016-08-20T03:22:16.418Z,0.00
2016-08-20T03:23:16.956Z,0.00
2016-08-20T03:24:17.478Z,0.00
2016-08-20T03:25:18.028Z,0.00
2016-08-20T03:26:18.858Z,0.00
2016-08-20T03:27:19.092Z,0.00
2016-08-20T03:28:19.635Z,0.00
2016-08-20T03:29:20.177Z,0.00
2016-08-20T03:30:20.721Z,0.00
2016-08-20T03:31:21.259Z,0.00
2016-08-20T03:32:21.806Z,0.00
2016-08-20T03:33:22.488Z,0.00
2016-08-20T03:34:22.907Z,0.00
2016-08-20T03:35:23.415Z,0.00
2016-08-20T03:36:23.957Z,0.00
2016-08-20T03:37:24.501Z,0.00
2016-08-20T03:38:25.038Z,0.00
2016-08-20T03:39:25.576Z,0.00
2016-08-20T03:40:26.120Z,0.00
2016-08-20T03:41:26.690Z,0.00
2016-08-20T03:42:27.204Z,0.00
2016-08-20T03:43:27.741Z,0.00
2016-08-20T03:44:28.325Z,0.00
2016-08-20T03:45:28.822Z,0.00
2016-08-20T03:46:29.360Z,0.00
2016-08-20T03:47:29.900Z,0.00
2016-08-20T03:48:30.442Z,0.00
2016-08-20T03:49:30.991Z,0.00
2016-08-20T03:50:31.532Z,0.00
2016-08-20T03:51:32.070Z,0.00
2016-08-20T03:52:32.612Z,0.00
2016-08-20T03:53:33.185Z,0.00
2016-08-20T03:54:33.685Z,0.00
2016-08-20T03:55:34.226Z,0.00
2016-08-20T03:56:34.769Z,0.00
2016-08-20T03:57:35.307Z,0.00
2016-08-20T03:58:35.846Z,0.00
2016-08-20T03:59:36.386Z,0.00
2016-08-20T04:00:36.921Z,0.00
2016-08-20T04:01:37.620Z,0.00
2016-08-20T04:02:38.006Z,0.00
2016-08-20T04:03:38.571Z,0.00
2016-08-20T04:04:39.086Z,0.00
2016-08-20T04:05:39.624Z,0.00
2016-08-20T04:06:40.164Z,0.00
2016-08-20T04:07:40.700Z,0.00
2016-08-20T04:08:41.240Z,0.00
2016-08-20T04:09:41.786Z,0.00
2016-08-20T04:10:42.323Z,0.00
2016-08-20T04:11:43.012Z,0.00
2016-08-20T04:12:43.549Z,0.00
2016-08-20T04:13:43.940Z,0.00
2016-08-20T04:14:44.487Z,0.00
2016-08-20T04:15:45.014Z,0.00
2016-08-20T04:16:45.554Z,0.00
2016-08-20T04:17:46.091Z,0.00
2016-08-20T04:18:46.786Z,0.00
2016-08-20T04:19:47.169Z,0.00
2016-08-20T04:20:47.861Z,0.00
2016-08-20T04:21:48.402Z,0.00
2016-08-20T04:22:48.811Z,0.00
2016-08-20T04:23:49.336Z,0.00
2016-08-20T04:24:49.877Z,0.00
2016-08-20T04:25:50.424Z,0.00
2016-08-20T04:26:50.967Z,0.00
2016-08-20T04:27:51.506Z,0.00
2016-08-20T04:28:52.049Z,0.00
2016-08-20T04:29:52.587Z,0.00
2016-08-20T04:30:53.126Z,0.00
2016-08-20T04:31:53.700Z,0.20
2016-08-20T04:32:54.203Z,0.20
2016-08-20T04:33:54.747Z,0.00
2016-08-20T04:34:55.287Z,0.00
2016-08-20T04:35:55.830Z,0.00
2016-08-20T04:36:56.369Z,0.00
2016-08-20T04:37:56.905Z,0.00
2016-08-20T04:38:57.467Z,0.00
2016-08-20T04:39:57.985Z,0.00
2016-08-20T04:40:58.555Z,0.00
2016-08-20T04:41:59.066Z,0.00
2016-08-20T04:42:59.607Z,0.00
2016-08-20T04:44:00.149Z,0.00
2016-08-20T04:45:00.684Z,0.00
2016-08-20T04:46:01.227Z,0.00
2016-08-20T04:47:01.768Z,0.00
2016-08-20T04:48:02.305Z,0.00
2016-08-20T04:49:02.846Z,0.00
2016-08-20T04:50:03.383Z,0.00
2016-08-20T04:51:03.957Z,0.00
2016-08-20T04:52:04.465Z,0.00
2016-08-20T04:53:05.002Z,0.00
2016-08-20T04:54:05.545Z,0.10
2016-08-20T04:55:06.087Z,0.00
2016-08-20T04:56:06.638Z,0.00
2016-08-20T04:57:07.166Z,0.10
2016-08-20T04:58:07.704Z,0.00
2016-08-20T04:59:08.248Z,0.00
2016-08-20T05:00:09.687Z,0.00
2016-08-20T05:01:09.334Z,0.00
2016-08-20T05:02:09.897Z,0.00
2016-08-20T05:03:10.424Z,0.00
2016-08-20T05:04:10.969Z,0.00
2016-08-20T05:05:11.510Z,0.00
2016-08-20T05:06:12.048Z,0.00
2016-08-20T05:07:12.585Z,0.00
2016-08-20T05:08:13.128Z,0.00
2016-08-20T05:09:13.670Z,0.00
2016-08-20T05:10:14.213Z,0.00
2016-08-20T05:11:14.750Z,0.00
2016-08-20T05:12:15.307Z,0.00
2016-08-20T05:13:15.832Z,0.00
2016-08-20T05:14:16.397Z,0.00
2016-08-20T05:15:16.906Z,0.00
2016-08-20T05:16:17.449Z,0.00
2016-08-20T05:17:17.991Z,0.00
2016-08-20T05:18:18.528Z,0.00
2016-08-20T05:19:19.065Z,0.00
2016-08-20T05:20:19.607Z,0.00
2016-08-20T05:21:20.299Z,0.00
2016-08-20T05:22:20.845Z,0.00
2016-08-20T05:23:21.228Z,0.00
2016-08-20T05:24:21.767Z,0.00
2016-08-20T05:25:22.305Z,0.00
2016-08-20T05:26:22.848Z,0.00
2016-08-20T05:27:23.388Z,0.00
2016-08-20T05:28:23.927Z,0.00
2016-08-20T05:29:24.469Z,0.00
2016-08-20T05:30:25.011Z,0.00
2016-08-20T05:31:25.548Z,0.00
2016-08-20T05:32:26.093Z,0.00
2016-08-20T05:33:26.632Z,0.00
2016-08-20T05:34:27.170Z,0.00
2016-08-20T05:35:27.714Z,0.00
2016-08-20T05:36:28.256Z,0.00
2016-08-20T05:37:28.847Z,0.00
2016-08-20T05:38:29.344Z,0.10
2016-08-20T05:39:29.884Z,0.00
2016-08-20T05:40:30.427Z,0.00
2016-08-20T05:41:30.970Z,0.00
2016-08-20T05:42:31.502Z,0.00
2016-08-20T05:43:32.043Z,0.00
2016-08-20T05:44:32.594Z,0.00
2016-08-20T05:45:33.131Z,0.10
2016-08-20T05:46:33.664Z,0.10
2016-08-20T05:47:34.198Z,0.00
2016-08-20T05:48:34.889Z,0.00
2016-08-20T05:49:35.427Z,0.00
2016-08-20T05:50:35.815Z,0.00
2016-08-20T05:51:36.354Z,0.00
2016-08-20T05:52:36.895Z,0.00
2016-08-20T05:53:37.432Z,0.00
2016-08-20T05:54:37.974Z,0.30
2016-08-20T05:55:38.516Z,0.20
2016-08-20T05:56:39.056Z,0.00
2016-08-20T05:57:39.596Z,0.00
2016-08-20T05:58:40.136Z,0.00
2016-08-20T05:59:40.676Z,0.00
2016-08-20T06:00:41.216Z,0.00
2016-08-20T06:01:41.753Z,0.50
2016-08-20T06:02:42.290Z,0.20
2016-08-20T06:03:42.829Z,0.30
2016-08-20T06:04:43.367Z,0.40
2016-08-20T06:05:43.913Z,0.80
2016-08-20T06:06:44.449Z,0.20
2016-08-20T06:07:45.139Z,0.10
2016-08-20T06:08:45.552Z,0.00
2016-08-20T06:09:46.093Z,0.00
2016-08-20T06:10:46.619Z,0.40
2016-08-20T06:11:47.147Z,0.40
2016-08-20T06:12:47.688Z,0.00
2016-08-20T06:13:48.233Z,0.00
2016-08-20T06:14:48.778Z,0.00
2016-08-20T06:15:49.334Z,0.30
2016-08-20T06:16:50.011Z,0.30
2016-08-20T06:17:50.560Z,0.20
2016-08-20T06:18:51.084Z,0.20
2016-08-20T06:19:51.475Z,0.10
2016-08-20T06:20:52.014Z,0.00
2016-08-20T06:21:52.552Z,0.50
2016-08-20T06:22:53.098Z,0.40
2016-08-20T06:23:53.630Z,0.10
2016-08-20T06:24:54.172Z,0.10
2016-08-20T06:25:54.716Z,0.00
2016-08-20T06:26:55.254Z,0.00
2016-08-20T06:27:55.792Z,0.00
2016-08-20T06:28:56.350Z,0.00
2016-08-20T06:29:56.876Z,0.50
2016-08-20T06:30:57.415Z,0.50
2016-08-20T06:31:57.955Z,0.00
2016-08-20T06:32:58.496Z,0.20
2016-08-20T06:33:59.038Z,0.60
2016-08-20T06:34:59.576Z,0.10
2016-08-20T06:36:00.421Z,0.70
2016-08-20T06:37:00.654Z,0.80
2016-08-20T06:38:01.216Z,0.10
2016-08-20T06:39:01.733Z,0.00
2016-08-20T06:40:02.275Z,0.10
2016-08-20T06:41:02.813Z,0.00
2016-08-20T06:42:03.354Z,0.00
2016-08-20T06:43:03.900Z,0.20
2016-08-20T06:44:04.431Z,0.00
2016-08-20T06:45:04.971Z,0.20
2016-08-20T06:46:05.505Z,0.00
2016-08-20T06:47:06.044Z,0.30
2016-08-20T06:48:06.615Z,0.60
2016-08-20T06:49:07.133Z,1.30
2016-08-20T06:50:07.682Z,1.30
2016-08-20T06:51:08.256Z,0.50
2016-08-20T06:52:08.771Z,0.50
2016-08-20T06:53:09.327Z,0.10
2016-08-20T06:54:09.847Z,0.20
2016-08-20T06:55:10.377Z,0.20
2016-08-20T06:56:11.063Z,0.10
2016-08-20T06:57:11.602Z,0.00
2016-08-20T06:58:11.993Z,0.30
2016-08-20T06:59:12.531Z,0.70
2016-08-20T07:00:13.065Z,0.80
2016-08-20T07:01:13.635Z,0.60
2016-08-20T07:02:14.146Z,0.90
2016-08-20T07:03:14.695Z,1.00
2016-08-20T07:04:15.225Z,1.00
2016-08-20T07:05:15.766Z,1.00
2016-08-20T07:06:16.304Z,0.40
2016-08-20T07:07:16.854Z,0.70
2016-08-20T07:08:17.385Z,0.60
2016-08-20T07:09:17.927Z,0.20
2016-08-20T07:10:18.471Z,0.30
2016-08-20T07:11:19.007Z,0.30
2016-08-20T07:12:19.548Z,0.30
2016-08-20T07:13:20.087Z,0.60
2016-08-20T07:14:20.624Z,0.50
2016-08-20T07:15:21.188Z,0.30
2016-08-20T07:16:21.727Z,0.10
2016-08-20T07:17:22.243Z,0.00
2016-08-20T07:18:22.782Z,0.00
2016-08-20T07:19:23.320Z,0.20
2016-08-20T07:20:24.010Z,0.20
2016-08-20T07:21:24.402Z,0.00
2016-08-20T07:22:24.939Z,0.10
2016-08-20T07:23:25.477Z,0.40
2016-08-20T07:24:26.319Z,0.70
2016-08-20T07:25:26.590Z,0.70
2016-08-20T07:26:27.110Z,0.40
2016-08-20T07:27:27.646Z,0.70
2016-08-20T07:28:28.191Z,0.70
2016-08-20T07:29:28.758Z,0.00
2016-08-20T07:30:29.421Z,0.00
2016-08-20T07:31:29.808Z,0.00
2016-08-20T07:32:30.348Z,0.20
2016-08-20T07:33:30.887Z,0.30
2016-08-20T07:34:31.426Z,0.00
2016-08-20T07:35:31.968Z,0.40
2016-08-20T07:36:32.510Z,0.00
2016-08-20T07:37:33.046Z,0.40
2016-08-20T07:38:33.736Z,0.20
2016-08-20T07:39:34.125Z,0.20
2016-08-20T07:40:34.658Z,0.00
2016-08-20T07:41:35.201Z,0.00
2016-08-20T07:42:35.752Z,0.00
2016-08-20T07:43:36.279Z,0.00
2016-08-20T07:44:36.844Z,0.30
2016-08-20T07:45:37.364Z,0.20
2016-08-20T07:46:37.908Z,0.20
2016-08-20T07:47:38.442Z,0.00
2016-08-20T07:48:38.979Z,0.00
2016-08-20T07:49:39.521Z,0.00
2016-08-20T07:50:40.063Z,0.00
2016-08-20T07:51:40.597Z,0.00
2016-08-20T07:52:41.137Z,0.00
2016-08-20T07:53:41.679Z,0.00
2016-08-20T07:54:42.248Z,0.00
2016-08-20T07:55:42.762Z,0.10
2016-08-20T07:56:43.300Z,0.10
2016-08-20T07:57:43.857Z,0.00
2016-08-20T07:58:44.379Z,0.10
2016-08-20T07:59:44.920Z,0.00
2016-08-20T08:00:45.460Z,0.00
2016-08-20T08:01:46.003Z,0.00
2016-08-20T08:02:46.547Z,0.80
2016-08-20T08:03:47.112Z,0.20
2016-08-20T08:04:47.778Z,0.00
2016-08-20T08:05:48.169Z,0.00
2016-08-20T08:06:48.707Z,0.00
2016-08-20T08:07:49.279Z,0.00
2016-08-20T08:08:49.784Z,0.40
2016-08-20T08:09:50.328Z,0.20
2016-08-20T08:10:50.868Z,0.20
2016-08-20T08:11:51.430Z,0.20
2016-08-20T08:12:51.944Z,0.20
2016-08-20T08:13:52.487Z,0.00
2016-08-20T08:14:53.022Z,0.00
2016-08-20T08:15:53.717Z,0.00
2016-08-20T08:16:54.107Z,0.00
2016-08-20T08:17:54.648Z,0.00
2016-08-20T08:18:55.189Z,0.00
2016-08-20T08:19:55.724Z,0.00
2016-08-20T08:20:56.261Z,0.00
2016-08-20T08:21:56.829Z,0.00
2016-08-20T08:22:57.339Z,0.00
2016-08-20T08:23:57.903Z,0.00
2016-08-20T08:24:58.420Z,0.10
2016-08-20T08:25:58.960Z,0.00
2016-08-20T08:26:59.502Z,0.00
2016-08-20T08:28:00.034Z,0.00
2016-08-20T08:29:00.576Z,0.00
2016-08-20T08:30:01.111Z,0.00
2016-08-20T08:31:01.649Z,0.00
2016-08-20T08:32:02.195Z,0.00
2016-08-20T08:33:02.736Z,0.00
2016-08-20T08:34:03.277Z,0.00
2016-08-20T08:35:03.814Z,0.00
2016-08-20T08:36:04.355Z,0.00
2016-08-20T08:37:04.894Z,0.00
2016-08-20T08:38:05.437Z,0.00
2016-08-20T08:39:05.983Z,0.00
2016-08-20T08:40:06.526Z,0.00
2016-08-20T08:41:07.066Z,0.00
2016-08-20T08:42:07.606Z,0.00
2016-08-20T08:43:08.169Z,0.00
2016-08-20T08:44:08.684Z,0.20
2016-08-20T08:45:09.371Z,0.00
2016-08-20T08:46:09.765Z,0.00
2016-08-20T08:47:10.305Z,0.10
2016-08-20T08:48:10.866Z,0.00
2016-08-20T08:49:11.385Z,0.10
2016-08-20T08:50:11.924Z,0.00
2016-08-20T08:51:12.465Z,0.00
2016-08-20T08:52:13.003Z,0.00
2016-08-20T08:53:13.544Z,0.00
2016-08-20T08:54:14.087Z,0.00
2016-08-20T08:55:14.624Z,0.00
2016-08-20T08:56:15.164Z,0.00
2016-08-20T08:57:15.704Z,0.00
2016-08-20T08:58:16.239Z,0.00
2016-08-20T08:59:16.934Z,0.00
2016-08-20T09:00:17.316Z,0.00
2016-08-20T09:01:17.860Z,0.00
2016-08-20T09:02:18.424Z,0.00
2016-08-20T09:03:18.954Z,0.00
2016-08-20T09:04:19.476Z,0.00
2016-08-20T09:05:20.029Z,0.20
2016-08-20T09:06:20.555Z,0.00
2016-08-20T09:07:21.111Z,0.30
2016-08-20T09:08:21.632Z,0.40
2016-08-20T09:09:22.172Z,0.70
2016-08-20T09:10:22.711Z,0.70
2016-08-20T09:11:23.248Z,0.80
2016-08-20T09:12:23.789Z,0.30
2016-08-20T09:13:24.331Z,0.30
2016-08-20T09:14:24.871Z,0.00
2016-08-20T09:15:25.419Z,0.00
2016-08-20T09:16:25.960Z,0.00
2016-08-20T09:17:26.500Z,0.00
2016-08-20T09:18:27.045Z,0.00
2016-08-20T09:19:27.586Z,0.30
2016-08-20T09:20:28.274Z,0.20
2016-08-20T09:21:28.668Z,0.00
2016-08-20T09:22:29.219Z,0.00
2016-08-20T09:23:29.766Z,0.00
2016-08-20T09:24:30.287Z,0.10
2016-08-20T09:25:30.823Z,0.00
2016-08-20T09:26:31.363Z,0.00
2016-08-20T09:27:31.904Z,0.00
2016-08-20T09:28:32.446Z,0.10
2016-08-20T09:29:32.985Z,0.00
2016-08-20T09:30:33.528Z,0.00
2016-08-20T09:31:34.067Z,0.00
2016-08-20T09:32:34.606Z,0.00
2016-08-20T09:33:35.149Z,0.00
2016-08-20T09:34:35.686Z,0.00
2016-08-20T09:35:36.231Z,0.00
2016-08-20T09:36:36.768Z,0.10
2016-08-20T09:37:37.310Z,0.00
2016-08-20T09:38:37.848Z,0.00
2016-08-20T09:39:38.386Z,0.00
2016-08-20T09:40:39.075Z,0.00
2016-08-20T09:41:39.464Z,0.00
2016-08-20T09:42:40.006Z,0.00
2016-08-20T09:43:40.546Z,0.00
2016-08-20T09:44:41.086Z,0.00
2016-08-20T09:45:42.823Z,0.00
2016-08-20T09:46:42.164Z,0.00
2016-08-20T09:47:42.701Z,0.00
2016-08-20T09:48:43.242Z,0.00
2016-08-20T09:49:43.801Z,0.00
2016-08-20T09:50:44.326Z,0.00
2016-08-20T09:51:44.870Z,0.00
2016-08-20T09:52:45.419Z,0.00
2016-08-20T09:53:45.953Z,0.10
2016-08-20T09:54:46.493Z,0.10
2016-08-20T09:55:47.043Z,0.00
2016-08-20T09:56:47.576Z,0.00
2016-08-20T09:57:48.115Z,0.00
2016-08-20T09:58:48.655Z,0.00
2016-08-20T09:59:49.227Z,0.00
2016-08-20T10:00:49.763Z,0.00
2016-08-20T10:01:50.277Z,0.10
2016-08-20T10:02:50.824Z,0.00
2016-08-20T10:03:51.370Z,0.00
2016-08-20T10:04:51.893Z,0.00
2016-08-20T10:05:52.430Z,0.00
2016-08-20T10:06:52.979Z,0.00
2016-08-20T10:07:53.663Z,0.00
2016-08-20T10:08:54.054Z,0.10
2016-08-20T10:09:54.603Z,0.60
2016-08-20T10:10:55.132Z,0.50
2016-08-20T10:11:55.678Z,0.00
2016-08-20T10:12:56.213Z,0.10
2016-08-20T10:13:56.756Z,0.00
2016-08-20T10:14:57.292Z,0.00
2016-08-20T10:15:57.833Z,0.10
2016-08-20T10:16:58.374Z,0.00
2016-08-20T10:17:59.064Z,0.30
2016-08-20T10:18:59.469Z,0.40
2016-08-20T10:19:59.988Z,0.30
2016-08-20T10:21:00.532Z,0.00
2016-08-20T10:22:01.072Z,0.00
2016-08-20T10:23:01.612Z,0.00
2016-08-20T10:24:02.156Z,0.00
2016-08-20T10:25:02.691Z,0.00
2016-08-20T10:26:03.230Z,0.10
2016-08-20T10:27:03.773Z,0.10
2016-08-20T10:28:04.317Z,0.20
2016-08-20T10:29:04.872Z,0.10
2016-08-20T10:30:05.402Z,0.30
2016-08-20T10:31:05.945Z,0.20
2016-08-20T10:32:06.495Z,0.30
2016-08-20T10:33:07.027Z,0.30
2016-08-20T10:34:07.576Z,0.30
2016-08-20T10:35:08.105Z,0.60
2016-08-20T10:36:08.645Z,0.40
2016-08-20T10:37:09.331Z,0.00
2016-08-20T10:38:09.773Z,0.00
2016-08-20T10:39:10.261Z,1.50
2016-08-20T10:40:10.800Z,0.50
2016-08-20T10:41:11.339Z,0.50
2016-08-20T10:42:11.875Z,1.20
2016-08-20T10:43:12.418Z,0.30
2016-08-20T10:44:12.961Z,0.10
2016-08-20T10:45:13.502Z,0.10
2016-08-20T10:46:14.038Z,0.20
2016-08-20T10:47:14.577Z,0.30
2016-08-20T10:48:15.136Z,0.40
2016-08-20T10:49:15.681Z,0.60
2016-08-20T10:50:16.197Z,0.30
2016-08-20T10:51:16.733Z,0.10
2016-08-20T10:52:17.270Z,0.20
2016-08-20T10:53:17.811Z,0.40
2016-08-20T10:54:18.355Z,0.40
2016-08-20T10:55:18.891Z,0.10
2016-08-20T10:56:19.583Z,0.10
2016-08-20T10:57:19.973Z,0.00
2016-08-20T10:58:20.530Z,0.20
2016-08-20T10:59:21.050Z,0.00
2016-08-20T11:00:21.599Z,0.00
2016-08-20T11:01:22.129Z,0.00
2016-08-20T11:02:22.677Z,0.20
2016-08-20T11:03:23.214Z,0.30
2016-08-20T11:04:23.758Z,0.10
2016-08-20T11:05:24.309Z,0.10
2016-08-20T11:06:24.841Z,0.30
2016-08-20T11:07:25.383Z,0.30
2016-08-20T11:08:25.927Z,0.30
2016-08-20T11:09:26.464Z,0.00
2016-08-20T11:10:27.003Z,0.00
2016-08-20T11:11:27.546Z,0.00
2016-08-20T11:12:28.087Z,0.00
2016-08-20T11:13:28.624Z,0.10
2016-08-20T11:14:29.201Z,0.20
2016-08-20T11:15:29.725Z,0.60
2016-08-20T11:16:30.244Z,0.80
2016-08-20T11:17:30.778Z,0.60
2016-08-20T11:18:31.317Z,1.00
2016-08-20T11:19:31.862Z,1.90
2016-08-20T11:20:32.394Z,1.70
2016-08-20T11:21:32.947Z,1.00
2016-08-20T11:22:33.479Z,0.50
2016-08-20T11:23:34.016Z,0.80
2016-08-20T11:24:34.557Z,1.10
2016-08-20T11:25:35.117Z,1.80
2016-08-20T11:26:35.635Z,1.30
2016-08-20T11:27:36.174Z,1.20
2016-08-20T11:28:36.710Z,0.80
2016-08-20T11:29:37.252Z,1.20
2016-08-20T11:30:37.796Z,1.00
2016-08-20T11:31:38.331Z,0.50
2016-08-20T11:32:38.868Z,0.00
2016-08-20T11:33:39.419Z,0.00
2016-08-20T11:34:40.099Z,0.00
2016-08-20T11:35:41.837Z,0.10
2016-08-20T11:36:41.024Z,0.30
2016-08-20T11:37:41.563Z,0.10
2016-08-20T11:38:42.106Z,0.30
2016-08-20T11:39:42.642Z,0.00
2016-08-20T11:40:43.190Z,0.00
2016-08-20T11:41:43.728Z,0.10
2016-08-20T11:42:44.272Z,0.60
2016-08-20T11:43:44.812Z,0.10
2016-08-20T11:44:45.356Z,0.70
2016-08-20T11:45:46.041Z,0.20
2016-08-20T11:46:46.452Z,0.00
2016-08-20T11:47:47.122Z,0.20
2016-08-20T11:48:47.517Z,0.00
2016-08-20T11:49:48.072Z,0.00
2016-08-20T11:50:48.600Z,0.30
2016-08-20T11:51:49.131Z,0.40
2016-08-20T11:52:49.820Z,0.50
2016-08-20T11:53:50.210Z,1.60
2016-08-20T11:54:50.900Z,1.00
2016-08-20T11:55:51.439Z,1.10
2016-08-20T11:56:51.832Z,0.70
2016-08-20T11:57:52.370Z,1.00
2016-08-20T11:58:52.911Z,1.60
2016-08-20T11:59:53.450Z,1.60
2016-08-20T12:00:53.988Z,1.50
2016-08-20T12:01:54.530Z,0.80
2016-08-20T12:02:55.065Z,0.50
2016-08-20T12:03:55.607Z,2.00
2016-08-20T12:04:56.153Z,1.00
2016-08-20T12:05:56.685Z,0.90
2016-08-20T12:06:57.224Z,1.30
2016-08-20T12:07:57.764Z,1.00
2016-08-20T12:08:58.300Z,0.90
2016-08-20T12:09:58.844Z,0.80
2016-08-20T12:10:59.380Z,0.60
2016-08-20T12:11:59.920Z,0.20
2016-08-20T12:13:00.486Z,0.40
2016-08-20T12:14:01.006Z,0.20
2016-08-20T12:15:01.542Z,0.20
2016-08-20T12:16:02.083Z,0.30
2016-08-20T12:17:02.629Z,0.10
2016-08-20T12:18:03.169Z,0.10
2016-08-20T12:19:03.709Z,0.10
2016-08-20T12:20:04.280Z,0.10
2016-08-20T12:21:04.796Z,0.80
2016-08-20T12:22:05.331Z,0.90
2016-08-20T12:23:05.900Z,0.90
2016-08-20T12:24:06.413Z,0.70
2016-08-20T12:25:06.952Z,1.00
2016-08-20T12:26:07.494Z,0.60
2016-08-20T12:27:08.034Z,0.80
2016-08-20T12:28:08.571Z,0.70
2016-08-20T12:29:09.113Z,0.30
2016-08-20T12:30:09.800Z,0.10
2016-08-20T12:31:10.192Z,0.10
2016-08-20T12:32:10.728Z,0.60
2016-08-20T12:33:11.267Z,0.50
2016-08-20T12:34:11.811Z,0.30
2016-08-20T12:35:12.348Z,0.50
2016-08-20T12:36:12.889Z,0.20
2016-08-20T12:37:13.428Z,0.10
2016-08-20T12:38:13.969Z,0.40
2016-08-20T12:39:14.507Z,0.20
2016-08-20T12:40:15.045Z,0.40
2016-08-20T12:41:15.591Z,0.80
2016-08-20T12:42:16.279Z,0.80
2016-08-20T12:43:16.669Z,0.30
2016-08-20T12:44:17.214Z,0.20
2016-08-20T12:45:17.751Z,0.40
2016-08-20T12:46:18.287Z,0.40
2016-08-20T12:47:18.827Z,0.40
2016-08-20T12:48:19.368Z,1.50
2016-08-20T12:49:19.907Z,0.60
2016-08-20T12:50:20.451Z,0.50
2016-08-20T12:51:20.984Z,0.70
2016-08-20T12:52:21.562Z,1.90
2016-08-20T12:53:22.074Z,1.10
2016-08-20T12:54:22.612Z,2.20
2016-08-20T12:55:23.153Z,1.50
2016-08-20T12:56:23.697Z,0.90
2016-08-20T12:57:24.231Z,1.80
2016-08-20T12:58:24.773Z,1.60
2016-08-20T12:59:25.310Z,1.30
2016-08-20T13:00:25.855Z,1.60
2016-08-20T13:01:26.417Z,0.10
2016-08-20T13:02:26.935Z,0.60
2016-08-20T13:03:27.476Z,0.60
2016-08-20T13:04:28.013Z,0.40
2016-08-20T13:05:28.555Z,0.10
2016-08-20T13:06:29.092Z,0.60
2016-08-20T13:07:29.631Z,0.40
2016-08-20T13:08:30.171Z,0.50
2016-08-20T13:09:30.716Z,0.00
2016-08-20T13:10:31.252Z,1.40
2016-08-20T13:11:32.539Z,1.40
2016-08-20T13:12:32.331Z,0.80
2016-08-20T13:13:32.873Z,0.40
2016-08-20T13:14:33.409Z,0.70
2016-08-20T13:15:33.952Z,0.70
2016-08-20T13:16:34.486Z,1.60
2016-08-20T13:17:35.026Z,1.80
2016-08-20T13:18:35.567Z,2.80
2016-08-20T13:19:36.109Z,2.30
2016-08-20T13:20:36.649Z,1.50
2016-08-20T13:21:37.188Z,1.50
2016-08-20T13:22:37.727Z,0.60
2016-08-20T13:23:38.271Z,0.90
2016-08-20T13:24:38.958Z,1.10
2016-08-20T13:25:39.350Z,1.10